createdAt,value
2023-03-26T00:01:19.276Z,6.40
2023-03-26T00:03:47.187Z,6.40
2023-03-26T00:06:16.181Z,6.30
2023-03-26T00:08:45.647Z,6.30
2023-03-26T00:11:15.610Z,6.20
2023-03-26T00:13:43.855Z,6.20
2023-03-26T00:16:13.681Z,6.20
2023-03-26T00:18:42.484Z,6.10
2023-03-26T00:21:12.921Z,6.10
2023-03-26T00:23:39.863Z,6.10
2023-03-26T00:26:10.649Z,6.20
2023-03-26T00:28:40.421Z,6.30
2023-03-26T00:31:10.405Z,6.30
2023-03-26T00:33:40.737Z,6.30
2023-03-26T00:36:10.954Z,6.30
2023-03-26T00:38:39.085Z,6.30
2023-03-26T00:41:17.637Z,6.30
2023-03-26T00:43:48.810Z,6.30
2023-03-26T00:46:17.632Z,6.30
2023-03-26T00:48:46.150Z,6.20
2023-03-26T00:51:18.152Z,6.20
2023-03-26T00:53:49.398Z,6.10
2023-03-26T00:56:17.173Z,6.10
2023-03-26T00:58:44.246Z,6.10
2023-03-26T01:01:14.081Z,6.10
2023-03-26T01:03:50.372Z,6.10
2023-03-26T01:06:28.189Z,6.10
2023-03-26T01:09:00.099Z,6.10
2023-03-26T01:11:31.199Z,6.10
2023-03-26T01:14:01.472Z,6.10
2023-03-26T01:16:37.066Z,6.10
2023-03-26T01:19:12.928Z,6.10
2023-03-26T01:21:39.849Z,6.00
2023-03-26T01:24:08.969Z,5.90
2023-03-26T01:27:04.528Z,6.00
2023-03-26T01:29:52.773Z,6.00
2023-03-26T01:32:44.151Z,6.00
2023-03-26T01:35:26.685Z,6.10
2023-03-26T01:38:02.303Z,6.10
2023-03-26T01:40:38.624Z,6.20
2023-03-26T01:43:17.097Z,6.20
2023-03-26T01:45:47.516Z,6.20
2023-03-26T01:48:14.346Z,6.30
2023-03-26T01:50:41.275Z,6.30
2023-03-26T01:53:10.285Z,6.30
2023-03-26T01:56:02.066Z,6.30
2023-03-26T01:58:46.547Z,6.40
2023-03-26T02:01:27.202Z,6.50
2023-03-26T02:04:00.784Z,6.50
2023-03-26T02:06:39.458Z,6.50
2023-03-26T02:09:10.895Z,6.60
2023-03-26T02:11:40.741Z,6.60
2023-03-26T02:14:08.529Z,6.70
2023-03-26T02:16:35.275Z,6.70
2023-03-26T02:19:01.979Z,6.70
2023-03-26T02:21:29.184Z,6.70
2023-03-26T02:24:02.868Z,6.70
2023-03-26T02:26:31.950Z,6.70
2023-03-26T02:28:59.162Z,6.70
2023-03-26T02:31:30.150Z,6.70
2023-03-26T02:33:57.192Z,6.70
2023-03-26T02:36:27.371Z,6.60
2023-03-26T02:38:55.871Z,6.60
2023-03-26T02:41:22.505Z,6.60
2023-03-26T02:43:49.354Z,6.60
2023-03-26T02:46:16.254Z,6.60
2023-03-26T02:48:43.901Z,6.60
2023-03-26T02:51:10.819Z,6.50
2023-03-26T02:53:39.464Z,6.50
2023-03-26T02:56:06.744Z,6.50
2023-03-26T02:58:33.451Z,6.40
2023-03-26T03:01:03.042Z,6.40
2023-03-26T03:03:30.274Z,6.40
2023-03-26T03:05:57.499Z,6.40
2023-03-26T03:08:28.101Z,6.30
2023-03-26T03:11:14.823Z,6.30
2023-03-26T03:13:41.774Z,6.40
2023-03-26T03:16:09.148Z,6.40
2023-03-26T03:18:36.460Z,6.40
2023-03-26T03:21:03.948Z,6.50
2023-03-26T03:23:30.753Z,6.50
2023-03-26T03:25:58.550Z,6.50
2023-03-26T03:28:26.640Z,6.50
2023-03-26T03:30:53.406Z,6.50
2023-03-26T03:33:21.469Z,6.50
2023-03-26T03:35:50.169Z,6.50
2023-03-26T03:38:17.800Z,6.50
2023-03-26T03:40:44.850Z,6.50
2023-03-26T03:43:11.584Z,6.50
2023-03-26T03:45:38.512Z,6.50
2023-03-26T03:48:06.020Z,6.50
2023-03-26T03:50:35.460Z,6.50
2023-03-26T03:53:03.055Z,6.50
2023-03-26T03:55:29.974Z,6.50
2023-03-26T03:57:58.386Z,6.50
2023-03-26T04:00:25.126Z,6.60
2023-03-26T04:02:54.372Z,6.60
2023-03-26T04:05:21.696Z,6.60
2023-03-26T04:07:48.411Z,6.60
2023-03-26T04:10:16.203Z,6.60
2023-03-26T04:12:42.797Z,6.60
2023-03-26T04:15:09.751Z,6.60
2023-03-26T04:17:42.353Z,6.60
2023-03-26T04:20:15.604Z,6.60
2023-03-26T04:22:43.606Z,6.70
2023-03-26T04:25:12.071Z,6.70
2023-03-26T04:27:42.563Z,6.60
2023-03-26T04:30:15.732Z,6.70
2023-03-26T04:32:43.046Z,6.70
2023-03-26T04:35:14.268Z,6.70
2023-03-26T04:37:44.505Z,6.60
2023-03-26T04:40:21.865Z,6.60
2023-03-26T04:42:48.665Z,6.60
2023-03-26T04:45:22.207Z,6.60
2023-03-26T04:47:50.435Z,6.50
2023-03-26T04:50:17.346Z,6.60
2023-03-26T04:52:45.126Z,6.60
2023-03-26T04:55:42.090Z,6.60
2023-03-26T04:58:09.395Z,6.60
2023-03-26T05:00:36.276Z,6.60
2023-03-26T05:03:02.923Z,6.60
2023-03-26T05:05:29.709Z,6.60
2023-03-26T05:07:56.423Z,6.60
2023-03-26T05:10:23.548Z,6.70
2023-03-26T05:12:50.207Z,6.60
2023-03-26T05:15:17.025Z,6.60
2023-03-26T05:17:43.823Z,6.60
2023-03-26T05:20:20.793Z,6.60
2023-03-26T05:22:49.032Z,6.60
2023-03-26T05:25:17.000Z,6.60
2023-03-26T05:27:43.940Z,6.60
2023-03-26T05:30:14.895Z,6.60
2023-03-26T05:32:41.829Z,6.60
2023-03-26T05:35:09.525Z,6.60
2023-03-26T05:37:38.718Z,6.60
2023-03-26T05:40:11.543Z,6.60
2023-03-26T05:42:39.742Z,6.60
2023-03-26T05:45:08.377Z,6.60
2023-03-26T05:47:35.420Z,6.60
2023-03-26T05:50:02.088Z,6.60
2023-03-26T05:52:29.003Z,6.60
2023-03-26T05:54:56.264Z,6.60
2023-03-26T05:57:23.882Z,6.60
2023-03-26T05:59:50.826Z,6.60
2023-03-26T06:02:17.556Z,6.60
2023-03-26T06:04:45.775Z,6.70
2023-03-26T06:07:12.693Z,6.70
2023-03-26T06:09:39.931Z,6.70
2023-03-26T06:12:07.804Z,6.80
2023-03-26T06:14:34.930Z,6.60
2023-03-26T06:17:01.802Z,6.60
2023-03-26T06:19:28.431Z,6.60
2023-03-26T06:21:55.177Z,6.50
2023-03-26T06:24:21.839Z,6.60
2023-03-26T06:26:48.461Z,6.70
2023-03-26T06:29:15.386Z,6.70
2023-03-26T06:31:42.154Z,6.80
2023-03-26T06:34:08.785Z,6.80
2023-03-26T06:36:35.439Z,6.90
2023-03-26T06:39:02.166Z,6.90
2023-03-26T06:41:35.564Z,6.90
2023-03-26T06:44:02.267Z,7.00
2023-03-26T06:46:30.409Z,7.10
2023-03-26T06:48:56.993Z,7.10
2023-03-26T06:51:23.602Z,7.10
2023-03-26T06:53:50.269Z,7.10
2023-03-26T06:56:16.992Z,7.20
2023-03-26T06:58:43.668Z,7.20
2023-03-26T07:01:10.393Z,7.30
2023-03-26T07:03:37.136Z,7.30
2023-03-26T07:06:03.976Z,7.30
2023-03-26T07:08:31.562Z,7.30
2023-03-26T07:10:58.341Z,7.30
2023-03-26T07:13:25.241Z,7.30
2023-03-26T07:15:51.829Z,7.40
2023-03-26T07:18:18.742Z,7.30
2023-03-26T07:20:46.063Z,7.30
2023-03-26T07:23:15.455Z,7.30
2023-03-26T07:25:42.476Z,7.30
2023-03-26T07:28:25.751Z,7.20
2023-03-26T07:31:18.708Z,7.20
2023-03-26T07:33:58.737Z,7.30
2023-03-26T07:36:43.509Z,7.30
2023-03-26T07:39:39.430Z,7.30
2023-03-26T07:42:34.157Z,7.30
2023-03-26T07:45:19.163Z,7.20
2023-03-26T07:47:47.006Z,7.20
2023-03-26T07:50:19.057Z,7.20
2023-03-26T07:52:46.116Z,7.10
2023-03-26T07:55:14.912Z,7.20
2023-03-26T07:58:00.568Z,7.20
2023-03-26T08:00:40.661Z,7.30
2023-03-26T08:03:07.494Z,7.30
2023-03-26T08:06:04.921Z,7.40
2023-03-26T08:08:52.465Z,7.30
2023-03-26T08:11:46.000Z,7.30
2023-03-26T08:14:29.764Z,7.30
2023-03-26T08:17:19.539Z,7.20
2023-03-26T08:20:17.074Z,7.20
2023-03-26T08:22:50.739Z,7.30
2023-03-26T08:25:17.774Z,7.30
2023-03-26T08:28:14.092Z,7.20
2023-03-26T08:30:40.856Z,7.30
2023-03-26T08:33:18.109Z,7.40
2023-03-26T08:35:46.789Z,7.40
2023-03-26T08:38:15.882Z,7.40
2023-03-26T08:40:57.735Z,7.40
2023-03-26T08:43:57.763Z,7.40
2023-03-26T08:46:50.462Z,7.30
2023-03-26T08:49:51.447Z,7.40
2023-03-26T08:52:42.361Z,7.40
2023-03-26T08:55:36.428Z,7.40
2023-03-26T08:58:20.860Z,7.40
2023-03-26T09:01:28.163Z,7.30
2023-03-26T09:04:22.232Z,7.30
2023-03-26T09:07:07.810Z,7.30
2023-03-26T09:09:43.246Z,7.40
2023-03-26T09:12:28.235Z,7.40
2023-03-26T09:15:12.381Z,7.40
2023-03-26T09:18:09.668Z,7.40
2023-03-26T09:20:55.860Z,7.40
2023-03-26T09:23:33.143Z,7.40
2023-03-26T09:26:08.657Z,7.40
2023-03-26T09:29:21.482Z,7.50
2023-03-26T09:32:02.513Z,7.50
2023-03-26T09:34:48.784Z,7.50
2023-03-26T09:37:56.819Z,7.50
2023-03-26T09:40:53.932Z,7.50
2023-03-26T09:43:51.343Z,7.30
2023-03-26T09:46:29.331Z,7.30
2023-03-26T09:49:17.752Z,7.10
2023-03-26T09:51:51.164Z,7.00
2023-03-26T09:54:27.194Z,7.00
2023-03-26T09:57:21.670Z,7.00
2023-03-26T09:59:59.675Z,7.10
2023-03-26T10:02:48.176Z,7.10
2023-03-26T10:05:48.770Z,7.20
2023-03-26T10:08:37.063Z,7.20
2023-03-26T10:11:18.693Z,7.30
2023-03-26T10:14:08.802Z,7.30
2023-03-26T10:17:18.137Z,7.30
2023-03-26T10:20:19.321Z,7.40
2023-03-26T10:22:45.905Z,7.50
2023-03-26T10:25:46.818Z,7.40
2023-03-26T10:28:41.228Z,7.40
2023-03-26T10:31:20.429Z,7.50
2023-03-26T10:33:52.828Z,7.50
2023-03-26T10:36:34.351Z,7.50
2023-03-26T10:39:36.264Z,7.50
2023-03-26T10:42:16.784Z,7.50
2023-03-26T10:45:26.127Z,7.70
2023-03-26T10:48:30.955Z,7.60
2023-03-26T10:51:35.354Z,7.80
2023-03-26T10:54:15.517Z,8.10
2023-03-26T10:56:47.764Z,8.50
2023-03-26T10:59:16.895Z,8.50
2023-03-26T11:02:00.878Z,8.50
2023-03-26T11:05:04.890Z,8.50
2023-03-26T11:07:47.973Z,8.60
2023-03-26T11:10:32.557Z,9.10
2023-03-26T11:13:29.714Z,9.20
2023-03-26T11:16:03.164Z,9.20
2023-03-26T11:18:49.606Z,9.10
2023-03-26T11:21:27.897Z,9.10
2023-03-26T11:24:16.221Z,9.20
2023-03-26T11:26:55.399Z,9.00
2023-03-26T11:29:40.366Z,9.00
2023-03-26T11:32:15.088Z,9.10
2023-03-26T11:34:56.455Z,9.10
2023-03-26T11:37:56.216Z,9.00
2023-03-26T11:40:32.623Z,8.90
2023-03-26T11:43:06.266Z,8.90
2023-03-26T11:45:42.042Z,8.80
2023-03-26T11:48:15.707Z,8.90
2023-03-26T11:50:47.875Z,8.90
2023-03-26T11:53:17.742Z,9.00
2023-03-26T11:56:04.920Z,9.10
2023-03-26T11:58:45.680Z,9.20
2023-03-26T12:01:30.323Z,9.20
2023-03-26T12:04:13.606Z,9.40
2023-03-26T12:07:10.835Z,9.40
2023-03-26T12:09:37.448Z,9.60
2023-03-26T12:12:05.549Z,10.20
2023-03-26T12:14:35.464Z,10.60
2023-03-26T12:17:08.752Z,10.90
2023-03-26T12:19:41.500Z,11.40
2023-03-26T12:22:30.957Z,11.70
2023-03-26T12:25:17.925Z,11.90
2023-03-26T12:27:49.659Z,12.30
2023-03-26T12:30:23.908Z,12.70
2023-03-26T12:32:53.249Z,12.40
2023-03-26T12:35:26.736Z,12.60
2023-03-26T12:38:16.411Z,12.90
2023-03-26T12:40:43.306Z,13.20
2023-03-26T12:44:49.273Z,13.50
2023-03-26T12:47:55.465Z,13.50
2023-03-26T12:49:18.964Z,12.70
2023-03-26T12:51:58.677Z,11.90
2023-03-26T12:54:33.318Z,11.20
2023-03-26T12:57:11.309Z,10.90
2023-03-26T12:59:58.073Z,10.60
2023-03-26T13:02:43.788Z,10.30
2023-03-26T13:05:34.972Z,10.40
2023-03-26T13:08:25.431Z,10.40
2023-03-26T13:10:57.834Z,10.50
2023-03-26T13:13:42.545Z,10.40
2023-03-26T13:16:33.970Z,10.40
2023-03-26T13:19:06.516Z,10.50
2023-03-26T13:21:45.427Z,10.50
2023-03-26T13:24:33.490Z,10.50
2023-03-26T13:27:26.374Z,10.60
2023-03-26T13:30:15.108Z,10.80
2023-03-26T13:32:58.796Z,10.80
2023-03-26T13:35:48.148Z,10.90
2023-03-26T13:38:29.751Z,10.80
2023-03-26T13:41:24.274Z,10.70
2023-03-26T13:44:16.883Z,10.80
2023-03-26T13:46:53.027Z,10.90
2023-03-26T13:49:27.125Z,10.80
2023-03-26T13:52:14.853Z,10.90
2023-03-26T13:54:48.788Z,10.70
2023-03-26T13:57:21.418Z,10.60
2023-03-26T13:59:55.619Z,10.30
2023-03-26T14:02:35.893Z,10.10
2023-03-26T14:05:26.085Z,10.00
2023-03-26T14:08:11.284Z,10.00
2023-03-26T14:10:43.018Z,9.90
2023-03-26T14:13:27.156Z,9.80
2023-03-26T14:15:58.235Z,9.90
2023-03-26T14:18:54.445Z,9.80
2023-03-26T14:21:34.096Z,9.80
2023-03-26T14:24:09.537Z,9.80
2023-03-26T14:27:00.328Z,9.90
2023-03-26T14:30:17.676Z,9.90
2023-03-26T14:33:13.308Z,10.10
2023-03-26T14:35:55.987Z,10.10
2023-03-26T14:39:00.526Z,10.00
2023-03-26T14:41:40.339Z,10.00
2023-03-26T14:44:47.971Z,10.00
2023-03-26T14:47:23.592Z,9.90
2023-03-26T14:50:35.713Z,9.90
2023-03-26T14:53:13.501Z,9.90
2023-03-26T14:56:14.342Z,9.90
2023-03-26T14:59:06.833Z,9.90
2023-03-26T15:01:55.341Z,9.90
2023-03-26T15:04:53.824Z,9.90
2023-03-26T15:07:57.873Z,10.00
2023-03-26T15:11:02.269Z,10.00
2023-03-26T15:13:56.831Z,10.00
2023-03-26T15:16:53.283Z,9.90
2023-03-26T15:19:30.308Z,9.90
2023-03-26T15:22:06.254Z,9.90
2023-03-26T15:25:21.955Z,9.90
2023-03-26T15:28:17.276Z,10.00
2023-03-26T15:31:10.971Z,9.90
2023-03-26T15:33:57.131Z,9.80
2023-03-26T15:36:50.774Z,9.70
2023-03-26T15:39:44.416Z,8.50
2023-03-26T15:42:46.827Z,8.00
2023-03-26T15:45:30.347Z,7.30
2023-03-26T15:48:12.443Z,7.00
2023-03-26T15:50:51.975Z,6.80
2023-03-26T15:54:00.545Z,6.80
2023-03-26T15:56:57.975Z,6.80
2023-03-26T15:59:48.745Z,6.80
2023-03-26T16:02:40.067Z,6.80
2023-03-26T16:05:33.138Z,6.80
2023-03-26T16:08:20.417Z,6.90
2023-03-26T16:10:53.065Z,6.90
2023-03-26T16:13:19.927Z,7.00
2023-03-26T16:15:57.829Z,7.20
2023-03-26T16:18:35.866Z,7.10
2023-03-26T16:21:31.961Z,7.10
2023-03-26T16:24:02.378Z,7.20
2023-03-26T16:26:44.164Z,7.20
2023-03-26T16:29:18.185Z,7.30
2023-03-26T16:32:10.158Z,7.30
2023-03-26T16:34:46.304Z,7.40
2023-03-26T16:37:31.971Z,7.50
2023-03-26T16:40:23.511Z,7.50
2023-03-26T16:43:08.467Z,7.50
2023-03-26T16:45:57.258Z,7.50
2023-03-26T16:48:41.476Z,7.50
2023-03-26T16:51:35.363Z,7.50
2023-03-26T16:54:25.353Z,7.50
2023-03-26T16:57:08.034Z,7.50
2023-03-26T17:00:16.607Z,7.50
2023-03-26T17:02:49.035Z,7.50
2023-03-26T17:05:36.663Z,7.60
2023-03-26T17:08:36.589Z,7.60
2023-03-26T17:11:36.657Z,7.60
2023-03-26T17:14:25.990Z,7.60
2023-03-26T17:17:23.363Z,7.60
2023-03-26T17:20:16.974Z,7.70
2023-03-26T17:22:54.187Z,7.70
2023-03-26T17:25:46.542Z,7.70
2023-03-26T17:28:37.442Z,7.80
2023-03-26T17:31:19.413Z,7.70
2023-03-26T17:33:47.920Z,7.80
2023-03-26T17:36:21.406Z,7.80
2023-03-26T17:38:48.038Z,7.80
2023-03-26T17:41:52.440Z,7.70
2023-03-26T17:44:37.821Z,7.70
2023-03-26T17:47:13.079Z,7.70
2023-03-26T17:49:40.971Z,7.70
2023-03-26T17:52:22.424Z,7.50
2023-03-26T17:54:52.268Z,7.50
2023-03-26T17:57:39.971Z,7.40
2023-03-26T18:00:09.310Z,7.30
2023-03-26T18:02:42.347Z,7.30
2023-03-26T18:05:11.734Z,7.30
2023-03-26T18:08:01.950Z,7.20
2023-03-26T18:11:02.716Z,7.20
2023-03-26T18:14:11.246Z,7.20
2023-03-26T18:16:41.123Z,7.20
2023-03-26T18:19:19.459Z,7.20
2023-03-26T18:21:50.169Z,7.10
2023-03-26T18:24:28.246Z,7.20
2023-03-26T18:27:13.359Z,7.20
2023-03-26T18:29:45.149Z,7.20
2023-03-26T18:32:11.861Z,7.20
2023-03-26T18:34:46.205Z,7.10
2023-03-26T18:37:27.208Z,7.10
2023-03-26T18:40:02.211Z,7.10
2023-03-26T18:42:31.542Z,7.10
2023-03-26T18:45:02.150Z,7.10
2023-03-26T18:47:31.695Z,7.10
2023-03-26T18:49:59.566Z,7.00
2023-03-26T18:52:28.501Z,7.00
2023-03-26T18:54:57.059Z,7.00
2023-03-26T18:57:26.376Z,7.00
2023-03-26T18:59:55.854Z,7.00
2023-03-26T19:02:24.790Z,7.00
2023-03-26T19:04:54.232Z,7.00
2023-03-26T19:07:24.421Z,7.00
2023-03-26T19:09:56.208Z,6.90
2023-03-26T19:12:29.150Z,7.00
2023-03-26T19:14:57.225Z,7.10
2023-03-26T19:17:28.173Z,7.10
2023-03-26T19:19:57.521Z,7.10
2023-03-26T19:22:25.157Z,7.10
2023-03-26T19:24:58.137Z,7.10
2023-03-26T19:27:25.032Z,7.10
2023-03-26T19:29:51.920Z,7.10
2023-03-26T19:32:21.779Z,7.10
2023-03-26T19:34:48.748Z,7.10
2023-03-26T19:37:24.990Z,7.10
2023-03-26T19:39:54.146Z,7.00
2023-03-26T19:42:26.461Z,7.10
2023-03-26T19:44:54.018Z,7.10
2023-03-26T19:47:31.897Z,7.20
2023-03-26T19:50:26.287Z,7.20
2023-03-26T19:53:22.113Z,7.20
2023-03-26T19:55:58.543Z,7.20
2023-03-26T19:58:26.751Z,7.20
2023-03-26T20:00:53.539Z,7.20
2023-03-26T20:03:36.899Z,7.20
2023-03-26T20:06:03.707Z,7.00
2023-03-26T20:08:30.366Z,7.00
2023-03-26T20:10:57.925Z,7.00
2023-03-26T20:13:25.202Z,7.00
2023-03-26T20:16:07.460Z,7.00
2023-03-26T20:18:35.186Z,6.80
2023-03-26T20:21:02.592Z,6.90
2023-03-26T20:23:29.253Z,6.80
2023-03-26T20:25:56.452Z,6.80
2023-03-26T20:28:24.241Z,6.80
2023-03-26T20:30:51.736Z,6.80
2023-03-26T20:33:27.805Z,6.70
2023-03-26T20:35:55.863Z,6.80
2023-03-26T20:38:36.678Z,6.70
2023-03-26T20:41:09.582Z,6.70
2023-03-26T20:43:36.564Z,6.80
2023-03-26T20:46:04.028Z,6.70
2023-03-26T20:48:31.504Z,6.60
2023-03-26T20:50:58.157Z,6.60
2023-03-26T20:53:24.886Z,6.60
2023-03-26T20:55:51.745Z,6.60
2023-03-26T20:58:31.042Z,6.60
2023-03-26T21:01:01.122Z,6.60
2023-03-26T21:03:27.817Z,6.60
2023-03-26T21:05:54.580Z,6.60
2023-03-26T21:08:22.897Z,6.60
2023-03-26T21:10:49.825Z,6.50
2023-03-26T21:13:28.439Z,6.40
2023-03-26T21:15:55.392Z,6.30
2023-03-26T21:18:22.491Z,6.30
2023-03-26T21:21:21.230Z,6.20
2023-03-26T21:24:06.996Z,6.20
2023-03-26T21:26:45.139Z,6.20
2023-03-26T21:29:12.683Z,6.20
2023-03-26T21:31:39.632Z,6.10
2023-03-26T21:34:07.193Z,6.10
2023-03-26T21:36:35.064Z,6.10
2023-03-26T21:39:03.137Z,6.10
2023-03-26T21:41:41.638Z,6.10
2023-03-26T21:44:08.608Z,6.00
2023-03-26T21:46:35.844Z,6.00
2023-03-26T21:49:03.258Z,6.00
2023-03-26T21:51:30.342Z,6.00
2023-03-26T21:53:57.250Z,6.00
2023-03-26T21:56:42.124Z,6.00
2023-03-26T21:59:24.437Z,5.90
2023-03-26T22:02:16.367Z,5.90
2023-03-26T22:04:46.396Z,5.90
2023-03-26T22:07:19.068Z,5.90
2023-03-26T22:09:45.971Z,5.80
2023-03-26T22:12:12.741Z,5.80
2023-03-26T22:14:39.487Z,5.80
2023-03-26T22:17:06.910Z,5.70
2023-03-26T22:19:34.733Z,5.70
2023-03-26T22:22:01.750Z,5.70
2023-03-26T22:24:28.502Z,5.70
2023-03-26T22:26:55.228Z,5.60
2023-03-26T22:29:21.872Z,5.50
2023-03-26T22:31:48.535Z,5.50
2023-03-26T22:34:15.372Z,5.50
2023-03-26T22:36:42.088Z,5.40
2023-03-26T22:39:08.733Z,5.40
2023-03-26T22:41:35.373Z,5.30
2023-03-26T22:44:16.927Z,5.20
2023-03-26T22:46:49.301Z,5.20
2023-03-26T22:49:16.625Z,5.10
2023-03-26T22:51:43.727Z,5.10
2023-03-26T22:54:10.481Z,5.10
2023-03-26T22:56:37.567Z,5.10
2023-03-26T22:59:04.365Z,5.00
2023-03-26T23:01:31.192Z,4.90
2023-03-26T23:03:58.361Z,5.00
2023-03-26T23:06:25.147Z,4.90
2023-03-26T23:08:51.983Z,4.80
2023-03-26T23:11:21.940Z,4.80
2023-03-26T23:13:49.216Z,4.80
2023-03-26T23:16:16.834Z,4.70
2023-03-26T23:18:44.239Z,4.70
2023-03-26T23:21:19.351Z,4.60
2023-03-26T23:23:52.008Z,4.60
2023-03-26T23:26:18.711Z,4.50
2023-03-26T23:28:45.610Z,4.50
2023-03-26T23:31:12.924Z,4.50
2023-03-26T23:33:45.654Z,4.40
2023-03-26T23:36:14.472Z,4.40
2023-03-26T23:38:43.629Z,4.40
2023-03-26T23:41:15.102Z,4.30
2023-03-26T23:43:53.604Z,4.40
2023-03-26T23:46:25.980Z,4.40
2023-03-26T23:48:53.084Z,4.40
2023-03-26T23:51:21.265Z,4.30
2023-03-26T23:53:49.151Z,4.40
2023-03-26T23:56:16.317Z,4.30
2023-03-26T23:58:42.924Z,4.30
